createdAt,value
2022-12-08T00:01:05.007Z,1000.77
2022-12-08T00:04:12.553Z,1000.72
2022-12-08T00:07:19.886Z,1000.77
2022-12-08T00:10:48.333Z,1000.68
2022-12-08T00:13:31.820Z,1000.71
2022-12-08T00:16:39.063Z,1000.68
2022-12-08T00:19:46.174Z,1000.67
2022-12-08T00:22:53.668Z,1000.61
2022-12-08T00:26:00.513Z,1000.60
2022-12-08T00:29:10.864Z,1000.55
2022-12-08T00:32:09.875Z,1000.51
2022-12-08T00:35:16.682Z,1000.51
2022-12-08T00:38:24.073Z,1000.54
2022-12-08T00:41:31.324Z,1000.46
2022-12-08T00:44:38.544Z,1000.45
2022-12-08T00:47:46.081Z,1000.42
2022-12-08T00:50:53.326Z,1000.44
2022-12-08T00:54:00.480Z,1000.46
2022-12-08T00:57:07.723Z,1000.42
2022-12-08T01:00:14.965Z,1000.46
2022-12-08T01:03:22.243Z,1000.41
2022-12-08T01:06:29.515Z,1000.35
2022-12-08T01:09:36.997Z,1000.29
2022-12-08T01:12:44.175Z,1000.24
2022-12-08T01:15:51.256Z,1000.25
2022-12-08T01:18:58.836Z,1000.28
2022-12-08T01:22:05.974Z,1000.32
2022-12-08T01:25:13.170Z,1000.32
2022-12-08T01:28:20.639Z,1000.33
2022-12-08T01:31:27.625Z,1000.37
2022-12-08T01:34:29.991Z,1000.34
2022-12-08T01:37:37.008Z,1000.27
2022-12-08T01:40:43.908Z,1000.26
2022-12-08T01:43:51.582Z,1000.27
2022-12-08T01:46:58.960Z,1000.19
2022-12-08T01:50:06.080Z,1000.21
2022-12-08T01:53:13.638Z,1000.23
2022-12-08T01:56:20.932Z,1000.24
2022-12-08T01:59:28.100Z,1000.24
2022-12-08T02:02:35.595Z,1000.22
2022-12-08T02:05:42.822Z,1000.11
2022-12-08T02:08:49.972Z,1000.12
2022-12-08T02:11:57.533Z,1000.06
2022-12-08T02:15:05.628Z,1000.02
2022-12-08T02:18:12.853Z,1000.01
2022-12-08T02:21:20.085Z,999.95
2022-12-08T02:24:28.127Z,999.97
2022-12-08T02:27:35.264Z,999.88
2022-12-08T02:30:42.466Z,999.84
2022-12-08T02:33:50.026Z,999.87
2022-12-08T02:36:57.442Z,999.80
2022-12-08T02:40:04.800Z,999.77
2022-12-08T02:43:12.324Z,999.69
2022-12-08T02:46:19.251Z,999.71
2022-12-08T02:49:26.658Z,999.68
2022-12-08T02:52:34.057Z,999.65
2022-12-08T02:55:40.818Z,999.68
2022-12-08T02:58:48.250Z,999.61
2022-12-08T03:01:55.027Z,999.64
2022-12-08T03:05:02.545Z,999.60
2022-12-08T03:08:10.275Z,999.63
2022-12-08T03:11:17.183Z,999.62
2022-12-08T03:14:25.111Z,999.56
2022-12-08T03:17:32.604Z,999.52
2022-12-08T03:20:39.541Z,999.53
2022-12-08T03:23:46.970Z,999.48
2022-12-08T03:26:54.082Z,999.52
2022-12-08T03:30:01.339Z,999.43
2022-12-08T03:33:08.952Z,999.44
2022-12-08T03:36:16.044Z,999.34
2022-12-08T03:39:23.402Z,999.28
2022-12-08T03:42:30.867Z,999.19
2022-12-08T03:45:38.144Z,999.25
2022-12-08T03:48:45.134Z,999.21
2022-12-08T03:51:52.161Z,999.19
2022-12-08T03:54:59.936Z,999.18
2022-12-08T03:58:07.073Z,999.15
2022-12-08T04:01:14.316Z,999.13
2022-12-08T04:04:21.775Z,999.12
2022-12-08T04:07:29.253Z,999.07
2022-12-08T04:10:36.426Z,999.07
2022-12-08T04:13:43.987Z,998.98
2022-12-08T04:16:51.028Z,998.94
2022-12-08T04:19:58.647Z,998.96
2022-12-08T04:23:06.108Z,999.02
2022-12-08T04:26:13.300Z,998.98
2022-12-08T04:29:20.520Z,998.90
2022-12-08T04:32:28.462Z,998.88
2022-12-08T04:35:35.344Z,998.84
2022-12-08T04:38:42.573Z,998.92
2022-12-08T04:41:50.074Z,998.92
2022-12-08T04:44:56.951Z,998.90
2022-12-08T04:48:04.374Z,998.83
2022-12-08T04:51:11.562Z,998.78
2022-12-08T04:54:18.743Z,998.80
2022-12-08T04:57:26.214Z,998.80
2022-12-08T05:00:33.446Z,998.71
2022-12-08T05:03:40.604Z,998.73
2022-12-08T05:06:48.016Z,998.64
2022-12-08T05:09:55.205Z,998.63
2022-12-08T05:13:02.407Z,998.62
2022-12-08T05:16:09.686Z,998.58
2022-12-08T05:19:17.202Z,998.58
2022-12-08T05:22:24.508Z,998.50
2022-12-08T05:25:31.627Z,998.48
2022-12-08T05:28:42.432Z,998.52
2022-12-08T05:31:39.629Z,998.44
2022-12-08T05:34:46.688Z,998.48
2022-12-08T05:37:53.724Z,998.44
2022-12-08T05:41:00.512Z,998.44
2022-12-08T05:44:07.904Z,998.42
2022-12-08T05:47:15.424Z,998.35
2022-12-08T05:50:22.151Z,998.42
2022-12-08T05:53:29.641Z,998.47
2022-12-08T05:56:37.002Z,998.59
2022-12-08T05:59:43.893Z,998.48
2022-12-08T06:02:51.502Z,998.33
2022-12-08T06:05:58.796Z,998.32
2022-12-08T06:09:05.934Z,998.31
2022-12-08T06:12:13.516Z,998.28
2022-12-08T06:15:20.354Z,998.29
2022-12-08T06:18:32.617Z,998.24
2022-12-08T06:21:29.830Z,998.22
2022-12-08T06:24:37.421Z,998.26
2022-12-08T06:27:44.778Z,998.23
2022-12-08T06:30:52.310Z,998.21
2022-12-08T06:33:59.134Z,998.24
2022-12-08T06:37:06.700Z,998.33
2022-12-08T06:40:13.716Z,998.24
2022-12-08T06:43:20.803Z,998.26
2022-12-08T06:46:28.632Z,998.26
2022-12-08T06:49:35.644Z,998.25
2022-12-08T06:52:51.741Z,998.25
2022-12-08T06:56:02.836Z,998.26
2022-12-08T06:58:52.948Z,998.32
2022-12-08T07:02:00.640Z,998.32
2022-12-08T07:05:07.654Z,998.35
2022-12-08T07:08:15.165Z,998.33
2022-12-08T07:11:22.892Z,998.27
2022-12-08T07:14:30.069Z,998.35
2022-12-08T07:17:37.098Z,998.33
2022-12-08T07:20:43.782Z,998.27
2022-12-08T07:23:55.914Z,998.32
2022-12-08T07:26:53.834Z,998.39
2022-12-08T07:30:00.661Z,998.41
2022-12-08T07:33:08.123Z,998.38
2022-12-08T07:36:15.312Z,998.32
2022-12-08T07:39:22.153Z,998.41
2022-12-08T07:42:29.595Z,998.42
2022-12-08T07:45:36.861Z,998.39
2022-12-08T07:48:43.772Z,998.40
2022-12-08T07:51:51.130Z,998.41
2022-12-08T07:54:58.062Z,998.48
2022-12-08T07:58:05.717Z,998.48
2022-12-08T08:01:13.362Z,998.40
2022-12-08T08:04:20.300Z,998.39
2022-12-08T08:07:27.730Z,998.36
2022-12-08T08:10:35.082Z,998.35
2022-12-08T08:13:42.045Z,998.36
2022-12-08T08:16:49.679Z,998.49
2022-12-08T08:19:57.163Z,998.46
2022-12-08T08:23:03.922Z,998.45
2022-12-08T08:26:11.316Z,998.46
2022-12-08T08:29:19.007Z,998.47
2022-12-08T08:32:25.899Z,998.42
2022-12-08T08:35:33.660Z,998.51
2022-12-08T08:38:41.145Z,998.52
2022-12-08T08:41:48.397Z,998.51
2022-12-08T08:44:56.019Z,998.51
2022-12-08T08:48:03.301Z,998.48
2022-12-08T08:51:10.571Z,998.48
2022-12-08T08:54:17.841Z,998.53
2022-12-08T08:57:26.170Z,998.50
2022-12-08T09:00:33.743Z,998.56
2022-12-08T09:03:40.662Z,998.52
2022-12-08T09:06:48.245Z,998.51
2022-12-08T09:10:00.015Z,998.46
2022-12-08T09:12:58.244Z,998.50
2022-12-08T09:16:05.832Z,998.55
2022-12-08T09:19:12.594Z,998.57
2022-12-08T09:22:20.250Z,998.54
2022-12-08T09:25:27.659Z,998.54
2022-12-08T09:28:34.582Z,998.52
2022-12-08T09:31:42.233Z,998.59
2022-12-08T09:34:52.283Z,998.59
2022-12-08T09:37:59.214Z,998.52
2022-12-08T09:41:06.998Z,998.45
2022-12-08T09:44:14.453Z,998.56
2022-12-08T09:47:21.435Z,998.58
2022-12-08T09:50:29.023Z,998.62
2022-12-08T09:53:36.509Z,998.52
2022-12-08T09:56:43.945Z,998.51
2022-12-08T09:59:51.714Z,998.52
2022-12-08T10:02:58.826Z,998.51
2022-12-08T10:06:05.915Z,998.49
2022-12-08T10:09:15.209Z,998.44
2022-12-08T10:12:15.017Z,998.45
2022-12-08T10:15:22.188Z,998.46
2022-12-08T10:18:29.292Z,998.46
2022-12-08T10:21:36.809Z,998.47
2022-12-08T10:24:43.701Z,998.45
2022-12-08T10:27:51.540Z,998.43
2022-12-08T10:30:59.021Z,998.45
2022-12-08T10:34:05.858Z,998.46
2022-12-08T10:37:13.436Z,998.50
2022-12-08T10:40:20.695Z,998.57
2022-12-08T10:43:27.780Z,998.52
2022-12-08T10:46:35.328Z,998.50
2022-12-08T10:49:42.386Z,998.49
2022-12-08T10:52:49.476Z,998.47
2022-12-08T10:55:56.964Z,998.38
2022-12-08T10:59:04.586Z,998.39
2022-12-08T11:02:11.917Z,998.30
2022-12-08T11:05:19.161Z,998.16
2022-12-08T11:08:26.854Z,998.18
2022-12-08T11:11:34.058Z,998.14
2022-12-08T11:14:41.199Z,998.09
2022-12-08T11:17:51.035Z,998.13
2022-12-08T11:20:49.341Z,998.15
2022-12-08T11:23:56.921Z,998.17
2022-12-08T11:27:04.581Z,998.22
2022-12-08T11:30:14.507Z,998.21
2022-12-08T11:33:22.525Z,998.24
2022-12-08T11:36:29.889Z,998.25
2022-12-08T11:39:36.898Z,998.18
2022-12-08T11:42:44.553Z,998.23
2022-12-08T11:45:51.875Z,998.21
2022-12-08T11:49:05.588Z,998.21
2022-12-08T11:52:02.586Z,998.28
2022-12-08T11:55:09.768Z,998.21
2022-12-08T11:58:17.076Z,998.24
2022-12-08T12:01:24.551Z,998.28
2022-12-08T12:04:31.818Z,998.34
2022-12-08T12:07:39.286Z,998.33
2022-12-08T12:10:46.351Z,998.29
2022-12-08T12:13:54.242Z,998.22
2022-12-08T12:17:01.584Z,998.26
2022-12-08T12:20:08.672Z,998.30
2022-12-08T12:23:16.042Z,998.30
2022-12-08T12:26:23.160Z,998.32
2022-12-08T12:29:30.378Z,998.27
2022-12-08T12:32:37.605Z,998.25
2022-12-08T12:35:44.523Z,998.29
2022-12-08T12:38:52.185Z,998.27
2022-12-08T12:41:59.305Z,998.23
2022-12-08T12:45:06.210Z,998.24
2022-12-08T12:48:13.878Z,998.16
2022-12-08T12:51:21.245Z,998.17
2022-12-08T12:54:28.089Z,998.11
2022-12-08T12:57:35.464Z,998.16
2022-12-08T13:00:42.395Z,998.14
2022-12-08T13:03:49.879Z,998.15
2022-12-08T13:06:57.576Z,998.21
2022-12-08T13:10:05.083Z,998.16
2022-12-08T13:13:12.440Z,998.22
2022-12-08T13:16:21.266Z,998.22
2022-12-08T13:19:30.334Z,998.18
2022-12-08T13:22:37.445Z,998.21
2022-12-08T13:25:44.731Z,998.18
2022-12-08T13:28:52.152Z,998.21
2022-12-08T13:31:59.333Z,998.22
2022-12-08T13:35:06.456Z,998.17
2022-12-08T13:38:13.988Z,998.19
2022-12-08T13:41:21.401Z,998.18
2022-12-08T13:47:34.526Z,998.24
2022-12-08T13:57:05.539Z,998.39
2022-12-08T13:59:55.542Z,998.42
2022-12-08T14:03:03.163Z,998.37
2022-12-08T14:06:12.721Z,998.41
2022-12-08T14:09:20.498Z,998.45
2022-12-08T14:12:27.877Z,998.49
2022-12-08T14:15:38.099Z,998.51
2022-12-08T14:18:45.818Z,998.56
2022-12-08T14:21:52.914Z,998.59
2022-12-08T14:25:00.190Z,998.56
2022-12-08T14:28:07.624Z,998.62
2022-12-08T14:31:15.058Z,998.53
2022-12-08T14:34:22.223Z,998.52
2022-12-08T14:37:29.565Z,998.51
2022-12-08T14:40:36.748Z,998.57
2022-12-08T14:43:44.046Z,998.51
2022-12-08T14:46:51.322Z,998.59
2022-12-08T14:49:58.598Z,998.54
2022-12-08T14:53:05.739Z,998.58
2022-12-08T14:56:13.080Z,998.59
2022-12-08T14:59:20.804Z,998.56
2022-12-08T15:02:27.549Z,998.50
2022-12-08T15:05:35.219Z,998.61
2022-12-08T15:08:42.723Z,998.60
2022-12-08T15:11:49.533Z,998.65
2022-12-08T15:14:57.134Z,998.67
2022-12-08T15:18:04.907Z,998.68
2022-12-08T15:21:11.885Z,998.68
2022-12-08T15:24:19.666Z,998.73
2022-12-08T15:27:27.216Z,998.73
2022-12-08T15:30:34.019Z,998.74
2022-12-08T15:33:41.486Z,998.80
2022-12-08T15:36:48.547Z,998.88
2022-12-08T15:39:55.897Z,998.92
2022-12-08T15:43:03.362Z,998.97
2022-12-08T15:46:10.523Z,999.04
2022-12-08T15:49:17.703Z,998.99
2022-12-08T15:52:25.072Z,999.06
2022-12-08T15:55:38.460Z,999.08
2022-12-08T16:01:40.283Z,998.96
2022-12-08T16:05:33.428Z,998.99
2022-12-08T16:07:56.081Z,998.96
2022-12-08T16:11:40.831Z,998.91
2022-12-08T16:14:19.882Z,998.96
2022-12-08T16:17:02.983Z,998.96
2022-12-08T16:20:10.881Z,998.95
2022-12-08T16:23:34.531Z,999.01
2022-12-08T16:29:28.871Z,999.06
2022-12-08T16:32:36.872Z,999.09
2022-12-08T16:35:44.247Z,999.13
2022-12-08T16:38:51.618Z,999.13
2022-12-08T16:41:58.435Z,999.09
2022-12-08T16:45:06.376Z,999.15
2022-12-08T16:48:13.986Z,999.08
2022-12-08T16:51:26.520Z,999.21
2022-12-08T16:54:23.805Z,999.21
2022-12-08T16:57:30.688Z,999.18
2022-12-08T17:00:38.308Z,999.23
2022-12-08T17:04:01.338Z,999.18
2022-12-08T17:06:50.131Z,999.21
2022-12-08T17:09:57.692Z,999.19
2022-12-08T17:13:04.902Z,999.15
2022-12-08T17:16:12.045Z,999.14
2022-12-08T17:19:19.072Z,999.18
2022-12-08T17:22:26.259Z,999.14
2022-12-08T17:25:33.431Z,999.11
2022-12-08T17:29:08.988Z,999.14
2022-12-08T17:31:45.521Z,999.16
2022-12-08T17:34:52.846Z,999.19
2022-12-08T17:37:59.703Z,999.25
2022-12-08T17:41:07.316Z,999.23
2022-12-08T17:44:14.534Z,999.23
2022-12-08T17:47:21.513Z,999.29
2022-12-08T17:50:28.948Z,999.24
2022-12-08T17:53:37.614Z,999.28
2022-12-08T17:56:45.085Z,999.31
2022-12-08T17:59:52.489Z,999.30
2022-12-08T18:02:59.569Z,999.28
2022-12-08T18:06:07.263Z,999.32
2022-12-08T18:09:14.928Z,999.34
2022-12-08T18:12:23.802Z,999.24
2022-12-08T18:15:37.468Z,999.27
2022-12-08T18:18:34.844Z,999.31
2022-12-08T18:21:41.763Z,999.39
2022-12-08T18:24:49.222Z,999.28
2022-12-08T18:27:56.192Z,999.33
2022-12-08T18:31:03.501Z,999.31
2022-12-08T18:34:11.220Z,999.39
2022-12-08T18:37:18.408Z,999.32
2022-12-08T18:40:25.554Z,999.40
2022-12-08T18:43:32.655Z,999.40
2022-12-08T18:46:39.941Z,999.35
2022-12-08T18:49:47.309Z,999.35
2022-12-08T18:52:54.560Z,999.31
2022-12-08T18:56:01.958Z,999.37
2022-12-08T18:59:09.047Z,999.43
2022-12-08T19:02:16.271Z,999.37
2022-12-08T19:05:24.059Z,999.44
2022-12-08T19:08:31.762Z,999.42
2022-12-08T19:11:38.719Z,999.43
2022-12-08T19:14:46.272Z,999.44
2022-12-08T19:17:52.941Z,999.55
2022-12-08T19:21:00.347Z,999.53
2022-12-08T19:24:07.202Z,999.49
2022-12-08T19:27:14.024Z,999.51
2022-12-08T19:30:21.512Z,999.61
2022-12-08T19:33:28.495Z,999.62
2022-12-08T19:36:35.249Z,999.73
2022-12-08T19:39:42.673Z,999.72
2022-12-08T19:42:49.819Z,999.68
2022-12-08T19:45:56.730Z,999.72
2022-12-08T19:49:04.070Z,999.65
2022-12-08T19:52:10.935Z,999.68
2022-12-08T19:55:18.291Z,999.65
2022-12-08T19:58:25.775Z,999.60
2022-12-08T20:01:32.649Z,999.67
2022-12-08T20:04:40.205Z,999.77
2022-12-08T20:07:47.528Z,999.79
2022-12-08T20:10:54.778Z,999.81
2022-12-08T20:14:02.458Z,999.90
2022-12-08T20:17:09.686Z,999.90
2022-12-08T20:20:16.689Z,999.88
2022-12-08T20:23:23.873Z,999.94
2022-12-08T20:26:31.037Z,999.84
2022-12-08T20:29:38.286Z,999.90
2022-12-08T20:32:46.213Z,999.89
2022-12-08T20:35:58.733Z,999.86
2022-12-08T20:38:55.263Z,999.96
2022-12-08T20:42:02.408Z,999.90
2022-12-08T20:45:10.390Z,999.97
2022-12-08T20:48:09.852Z,999.95
2022-12-08T20:51:16.858Z,999.98
2022-12-08T20:54:23.898Z,1000.00
2022-12-08T20:57:30.672Z,999.98
2022-12-08T21:00:38.427Z,999.99
2022-12-08T21:03:45.964Z,999.99
2022-12-08T21:06:53.078Z,1000.00
2022-12-08T21:10:00.505Z,1000.08
2022-12-08T21:13:07.884Z,1000.02
2022-12-08T21:16:14.694Z,1000.05
2022-12-08T21:19:22.045Z,1000.09
2022-12-08T21:22:29.456Z,1000.08
2022-12-08T21:25:36.624Z,1000.12
2022-12-08T21:28:44.179Z,1000.12
2022-12-08T21:31:51.497Z,1000.12
2022-12-08T21:34:58.990Z,1000.11
2022-12-08T21:38:06.208Z,1000.12
2022-12-08T21:41:13.250Z,1000.13
2022-12-08T21:44:20.581Z,1000.06
2022-12-08T21:47:28.513Z,1000.08
2022-12-08T21:50:35.842Z,1000.07
2022-12-08T21:53:43.034Z,1000.16
2022-12-08T21:56:50.148Z,1000.25
2022-12-08T21:59:57.978Z,1000.16
2022-12-08T22:03:05.572Z,1000.16
2022-12-08T22:06:13.154Z,1000.16
2022-12-08T22:09:21.066Z,1000.14
2022-12-08T22:12:28.454Z,1000.16
2022-12-08T22:15:35.721Z,1000.14
2022-12-08T22:18:43.137Z,1000.08
2022-12-08T22:21:50.016Z,1000.13
2022-12-08T22:24:57.693Z,1000.08
2022-12-08T22:28:04.783Z,1000.10
2022-12-08T22:31:12.111Z,1000.10
2022-12-08T22:34:19.696Z,1000.10
2022-12-08T22:37:26.733Z,1000.11
2022-12-08T22:40:33.994Z,1000.12
2022-12-08T22:43:41.483Z,1000.19
2022-12-08T22:46:48.567Z,1000.17
2022-12-08T22:49:55.947Z,1000.12
2022-12-08T22:53:03.368Z,1000.12
2022-12-08T22:56:10.178Z,1000.11
2022-12-08T22:59:17.802Z,1000.12
2022-12-08T23:02:25.468Z,1000.13
2022-12-08T23:05:32.415Z,1000.17
2022-12-08T23:08:39.929Z,1000.15
2022-12-08T23:11:46.736Z,1000.26
2022-12-08T23:14:54.047Z,1000.26
2022-12-08T23:18:01.386Z,1000.25
2022-12-08T23:21:08.732Z,1000.19
2022-12-08T23:24:15.910Z,1000.21
2022-12-08T23:27:23.353Z,1000.17
2022-12-08T23:30:30.390Z,1000.18
2022-12-08T23:33:37.424Z,1000.20
2022-12-08T23:36:44.891Z,1000.18
2022-12-08T23:39:51.856Z,1000.21
2022-12-08T23:42:59.173Z,1000.14
2022-12-08T23:46:06.537Z,1000.00
2022-12-08T23:49:14.308Z,1000.09
2022-12-08T23:52:21.533Z,1000.13
2022-12-08T23:55:28.452Z,1000.12
2022-12-08T23:58:35.772Z,1000.13
